createdAt,value
2023-01-30T00:00:25.439Z,77.95
2023-01-30T00:02:51.723Z,77.14
2023-01-30T00:05:18.152Z,78.66
2023-01-30T00:07:44.513Z,78.03
2023-01-30T00:10:11.274Z,78.73
2023-01-30T00:12:37.601Z,77.41
2023-01-30T00:15:04.357Z,78.00
2023-01-30T00:17:30.627Z,77.76
2023-01-30T00:19:56.959Z,78.51
2023-01-30T00:22:23.460Z,77.60
2023-01-30T00:24:49.863Z,78.08
2023-01-30T00:27:16.611Z,77.69
2023-01-30T00:29:45.667Z,78.62
2023-01-30T00:32:15.596Z,81.07
2023-01-30T00:34:41.875Z,79.22
2023-01-30T00:37:08.784Z,78.33
2023-01-30T00:39:35.134Z,79.30
2023-01-30T00:42:01.435Z,78.33
2023-01-30T00:44:27.804Z,78.50
2023-01-30T00:46:54.130Z,79.39
2023-01-30T00:49:20.448Z,78.70
2023-01-30T00:51:47.219Z,79.70
2023-01-30T00:54:13.533Z,79.51
2023-01-30T00:56:39.797Z,79.13
2023-01-30T00:59:06.124Z,79.41
2023-01-30T01:01:32.460Z,78.87
2023-01-30T01:03:58.856Z,79.13
2023-01-30T01:06:25.138Z,78.27
2023-01-30T01:08:51.508Z,78.32
2023-01-30T01:11:17.783Z,77.77
2023-01-30T01:13:44.058Z,77.61
2023-01-30T01:16:10.463Z,77.49
2023-01-30T01:18:36.813Z,77.41
2023-01-30T01:21:03.404Z,77.01
2023-01-30T01:23:29.696Z,76.91
2023-01-30T01:25:55.983Z,76.71
2023-01-30T01:28:22.299Z,77.94
2023-01-30T01:30:48.754Z,79.50
2023-01-30T01:33:15.161Z,78.57
2023-01-30T01:35:41.532Z,79.13
2023-01-30T01:38:07.844Z,78.98
2023-01-30T01:40:34.180Z,80.19
2023-01-30T01:43:00.472Z,79.38
2023-01-30T01:45:26.789Z,78.88
2023-01-30T01:48:05.633Z,79.51
2023-01-30T01:50:53.332Z,79.48
2023-01-30T01:53:24.611Z,79.03
2023-01-30T01:55:56.068Z,78.47
2023-01-30T01:58:28.016Z,78.46
2023-01-30T02:00:57.840Z,78.37
2023-01-30T02:03:26.339Z,77.31
2023-01-30T02:05:57.059Z,77.42
2023-01-30T02:08:29.140Z,77.11
2023-01-30T02:11:17.520Z,77.56
2023-01-30T02:13:45.269Z,76.70
2023-01-30T02:16:11.638Z,76.98
2023-01-30T02:18:41.411Z,76.30
2023-01-30T02:21:10.470Z,76.59
2023-01-30T02:23:59.541Z,76.49
2023-01-30T02:26:47.530Z,76.72
2023-01-30T02:29:46.962Z,76.07
2023-01-30T02:32:41.128Z,76.46
2023-01-30T02:35:26.080Z,76.13
2023-01-30T02:38:04.334Z,76.11
2023-01-30T02:41:08.412Z,75.96
2023-01-30T02:44:15.335Z,75.30
2023-01-30T02:46:46.382Z,75.16
2023-01-30T02:49:41.410Z,75.36
2023-01-30T02:52:11.356Z,75.29
2023-01-30T02:54:37.636Z,75.41
2023-01-30T02:57:04.149Z,75.11
2023-01-30T02:59:35.134Z,74.82
2023-01-30T03:02:21.763Z,74.85
2023-01-30T03:05:08.543Z,74.99
2023-01-30T03:07:53.550Z,75.08
2023-01-30T03:10:38.006Z,74.97
2023-01-30T03:13:20.633Z,74.99
2023-01-30T03:15:54.451Z,75.32
2023-01-30T03:18:21.409Z,75.07
2023-01-30T03:20:48.429Z,75.47
2023-01-30T03:23:14.809Z,74.94
2023-01-30T03:25:43.242Z,75.08
2023-01-30T03:28:10.890Z,74.64
2023-01-30T03:30:37.302Z,75.36
2023-01-30T03:33:03.703Z,75.30
2023-01-30T03:35:30.259Z,75.53
2023-01-30T03:37:58.115Z,75.36
2023-01-30T03:40:24.615Z,75.28
2023-01-30T03:42:50.910Z,75.05
2023-01-30T03:45:17.527Z,74.90
2023-01-30T03:47:43.951Z,74.81
2023-01-30T03:50:10.744Z,74.33
2023-01-30T03:52:37.248Z,74.27
2023-01-30T03:55:04.210Z,74.18
2023-01-30T03:57:30.575Z,73.66
2023-01-30T03:59:57.019Z,73.33
2023-01-30T04:02:23.393Z,73.42
2023-01-30T04:04:49.838Z,73.94
2023-01-30T04:07:16.245Z,73.24
2023-01-30T04:09:42.631Z,72.89
2023-01-30T04:12:09.053Z,73.33
2023-01-30T04:14:35.331Z,73.34
2023-01-30T04:17:01.846Z,73.02
2023-01-30T04:19:28.123Z,73.56
2023-01-30T04:21:54.394Z,72.90
2023-01-30T04:24:20.706Z,72.99
2023-01-30T04:26:47.062Z,73.37
2023-01-30T04:29:13.367Z,73.30
2023-01-30T04:31:39.755Z,72.49
2023-01-30T04:34:06.595Z,73.13
2023-01-30T04:36:32.877Z,73.02
2023-01-30T04:38:59.274Z,73.45
2023-01-30T04:41:25.592Z,73.10
2023-01-30T04:43:51.866Z,72.79
2023-01-30T04:46:18.161Z,73.06
2023-01-30T04:48:44.432Z,72.95
2023-01-30T04:51:10.972Z,73.12
2023-01-30T04:53:37.312Z,73.47
2023-01-30T04:56:03.855Z,73.77
2023-01-30T04:58:30.153Z,73.79
2023-01-30T05:00:56.569Z,73.53
2023-01-30T05:03:22.911Z,73.81
2023-01-30T05:05:49.287Z,74.26
2023-01-30T05:08:15.909Z,74.00
2023-01-30T05:10:42.195Z,74.87
2023-01-30T05:13:08.574Z,75.31
2023-01-30T05:15:34.945Z,76.09
2023-01-30T05:18:01.217Z,76.77
2023-01-30T05:20:27.673Z,77.27
2023-01-30T05:22:53.974Z,77.23
2023-01-30T05:25:20.594Z,77.21
2023-01-30T05:27:47.054Z,77.60
2023-01-30T05:30:13.460Z,77.25
2023-01-30T05:32:39.742Z,77.51
2023-01-30T05:35:06.709Z,77.51
2023-01-30T05:37:33.103Z,77.07
2023-01-30T05:39:59.486Z,76.90
2023-01-30T05:42:25.784Z,77.24
2023-01-30T05:44:52.449Z,77.24
2023-01-30T05:47:18.738Z,77.89
2023-01-30T05:49:45.097Z,77.29
2023-01-30T05:52:11.447Z,77.96
2023-01-30T05:54:37.732Z,77.32
2023-01-30T05:57:04.162Z,78.12
2023-01-30T05:59:30.448Z,77.93
2023-01-30T06:01:56.753Z,78.36
2023-01-30T06:04:23.098Z,77.69
2023-01-30T06:06:50.108Z,77.98
2023-01-30T06:09:16.549Z,77.83
2023-01-30T06:11:42.929Z,77.99
2023-01-30T06:14:09.282Z,77.85
2023-01-30T06:16:35.577Z,77.66
2023-01-30T06:19:02.005Z,78.01
2023-01-30T06:21:28.268Z,78.39
2023-01-30T06:23:54.576Z,77.66
2023-01-30T06:26:20.940Z,77.34
2023-01-30T06:28:47.229Z,77.35
2023-01-30T06:31:13.571Z,76.97
2023-01-30T06:33:40.002Z,76.97
2023-01-30T06:36:06.755Z,76.30
2023-01-30T06:38:33.044Z,76.48
2023-01-30T06:40:59.343Z,76.03
2023-01-30T06:43:25.717Z,76.03
2023-01-30T06:45:52.014Z,75.89
2023-01-30T06:48:19.515Z,75.57
2023-01-30T06:50:46.867Z,75.72
2023-01-30T06:53:13.563Z,75.84
2023-01-30T06:55:39.857Z,75.47
2023-01-30T06:58:08.882Z,76.21
2023-01-30T07:00:36.361Z,76.00
2023-01-30T07:03:02.807Z,75.55
2023-01-30T07:05:29.111Z,75.03
2023-01-30T07:07:55.721Z,74.90
2023-01-30T07:10:22.201Z,74.59
2023-01-30T07:12:48.526Z,75.06
2023-01-30T07:15:15.057Z,74.29
2023-01-30T07:17:41.968Z,75.31
2023-01-30T07:20:09.875Z,75.96
2023-01-30T07:22:36.106Z,76.24
2023-01-30T07:25:02.328Z,75.72
2023-01-30T07:27:28.654Z,73.83
2023-01-30T07:29:54.929Z,73.51
2023-01-30T07:32:21.230Z,73.78
2023-01-30T07:34:47.592Z,74.21
2023-01-30T07:37:14.452Z,73.76
2023-01-30T07:39:41.025Z,73.68
2023-01-30T07:42:07.593Z,73.92
2023-01-30T07:44:34.031Z,74.55
2023-01-30T07:47:01.182Z,74.70
2023-01-30T07:49:27.662Z,74.50
2023-01-30T07:51:53.965Z,74.23
2023-01-30T07:54:20.404Z,74.15
2023-01-30T07:56:46.709Z,74.37
2023-01-30T07:59:13.209Z,74.97
2023-01-30T08:01:39.507Z,74.40
2023-01-30T08:04:05.832Z,74.43
2023-01-30T08:06:32.239Z,74.35
2023-01-30T08:08:58.567Z,74.17
2023-01-30T08:11:24.845Z,74.16
2023-01-30T08:13:51.151Z,73.56
2023-01-30T08:16:17.570Z,73.07
2023-01-30T08:18:43.887Z,72.52
2023-01-30T08:21:10.189Z,72.84
2023-01-30T08:23:36.509Z,73.68
2023-01-30T08:26:04.900Z,73.57
2023-01-30T08:28:31.325Z,72.94
2023-01-30T08:30:58.063Z,73.24
2023-01-30T08:33:25.372Z,73.41
2023-01-30T08:35:51.750Z,73.29
2023-01-30T08:38:18.455Z,73.46
2023-01-30T08:40:44.794Z,72.71
2023-01-30T08:43:11.125Z,72.37
2023-01-30T08:45:37.477Z,73.20
2023-01-30T08:48:05.875Z,73.90
2023-01-30T08:50:33.356Z,73.75
2023-01-30T08:53:07.502Z,73.44
2023-01-30T08:55:33.867Z,74.09
2023-01-30T08:58:00.192Z,74.11
2023-01-30T09:00:27.623Z,74.52
2023-01-30T09:02:57.835Z,75.03
2023-01-30T09:05:24.988Z,75.99
2023-01-30T09:07:51.568Z,76.43
2023-01-30T09:10:18.509Z,77.37
2023-01-30T09:12:45.037Z,77.87
2023-01-30T09:15:11.395Z,77.74
2023-01-30T09:17:37.754Z,77.97
2023-01-30T09:20:09.342Z,77.97
2023-01-30T09:22:35.695Z,77.88
2023-01-30T09:25:01.991Z,77.74
2023-01-30T09:27:28.356Z,78.31
2023-01-30T09:29:54.678Z,79.06
2023-01-30T09:32:21.153Z,79.03
2023-01-30T09:34:47.663Z,79.21
2023-01-30T09:37:14.691Z,78.93
2023-01-30T09:39:40.963Z,79.46
2023-01-30T09:42:35.944Z,79.49
2023-01-30T09:45:27.875Z,79.65
2023-01-30T09:48:13.528Z,79.47
2023-01-30T09:51:26.869Z,79.19
2023-01-30T09:54:07.269Z,79.24
2023-01-30T09:56:33.574Z,78.63
2023-01-30T09:59:02.896Z,79.07
2023-01-30T10:01:39.251Z,78.36
2023-01-30T10:04:32.208Z,77.52
2023-01-30T10:07:10.504Z,77.33
2023-01-30T10:09:39.756Z,77.13
2023-01-30T10:12:30.782Z,76.45
2023-01-30T10:15:19.315Z,76.54
2023-01-30T10:17:45.562Z,76.08
2023-01-30T10:20:45.181Z,75.69
2023-01-30T10:23:36.514Z,75.85
2023-01-30T10:26:13.273Z,75.65
2023-01-30T10:29:08.345Z,75.55
2023-01-30T10:31:44.820Z,74.94
2023-01-30T10:34:32.606Z,74.84
2023-01-30T10:37:06.453Z,74.82
2023-01-30T10:39:55.303Z,75.24
2023-01-30T10:42:43.682Z,75.61
2023-01-30T10:45:21.198Z,76.11
2023-01-30T10:47:54.676Z,75.86
2023-01-30T10:50:37.439Z,75.60
2023-01-30T10:53:26.905Z,75.65
2023-01-30T10:56:54.992Z,75.64
2023-01-30T10:59:26.343Z,75.09
2023-01-30T11:01:58.822Z,75.91
2023-01-30T11:04:30.969Z,75.95
2023-01-30T11:06:59.968Z,75.75
2023-01-30T11:09:41.766Z,75.81
2023-01-30T11:12:08.218Z,75.24
2023-01-30T11:14:58.399Z,75.35
2023-01-30T11:17:40.427Z,75.62
2023-01-30T11:20:19.680Z,76.61
2023-01-30T11:22:51.928Z,75.91
2023-01-30T11:25:22.451Z,76.30
2023-01-30T11:28:03.141Z,76.43
2023-01-30T11:30:36.681Z,76.25
2023-01-30T11:33:12.370Z,76.60
2023-01-30T11:35:51.112Z,76.66
2023-01-30T11:38:22.279Z,76.62
2023-01-30T11:40:48.747Z,76.22
2023-01-30T11:43:15.271Z,76.69
2023-01-30T11:45:46.961Z,76.88
2023-01-30T11:48:31.526Z,76.81
2023-01-30T11:51:06.069Z,76.75
2023-01-30T11:53:40.084Z,76.97
2023-01-30T11:56:15.895Z,76.61
2023-01-30T11:58:43.590Z,76.15
2023-01-30T12:01:10.268Z,76.72
2023-01-30T12:03:52.595Z,76.83
2023-01-30T12:06:30.999Z,76.79
2023-01-30T12:08:57.701Z,76.48
2023-01-30T12:11:26.049Z,76.64
2023-01-30T12:13:55.671Z,76.77
2023-01-30T12:16:53.633Z,76.74
2023-01-30T12:19:42.868Z,76.08
2023-01-30T12:22:20.826Z,76.14
2023-01-30T12:24:57.636Z,76.33
2023-01-30T12:27:51.883Z,77.12
2023-01-30T12:30:42.760Z,76.58
2023-01-30T12:33:13.250Z,76.75
2023-01-30T12:35:47.990Z,76.60
2023-01-30T12:38:42.154Z,76.86
2023-01-30T12:41:28.934Z,76.44
2023-01-30T12:44:13.440Z,76.59
2023-01-30T12:47:04.015Z,75.63
2023-01-30T12:49:38.599Z,75.43
2023-01-30T12:52:23.921Z,75.97
2023-01-30T12:55:06.053Z,75.60
2023-01-30T12:57:41.409Z,76.26
2023-01-30T13:00:29.717Z,76.94
2023-01-30T13:03:06.820Z,75.99
2023-01-30T13:06:14.966Z,75.83
2023-01-30T13:09:25.669Z,75.85
2023-01-30T13:12:05.855Z,74.25
2023-01-30T13:14:51.926Z,75.37
2023-01-30T13:17:25.358Z,74.72
2023-01-30T13:20:16.957Z,73.26
2023-01-30T13:23:04.096Z,72.84
2023-01-30T13:25:34.097Z,73.11
2023-01-30T13:28:06.724Z,73.10
2023-01-30T13:30:34.461Z,73.20
2023-01-30T13:33:19.048Z,72.00
2023-01-30T13:35:50.949Z,73.26
2023-01-30T13:38:22.330Z,72.51
2023-01-30T13:40:50.665Z,73.50
2023-01-30T13:43:31.286Z,73.58
2023-01-30T13:46:01.923Z,73.20
2023-01-30T13:48:48.954Z,72.82
2023-01-30T13:51:49.254Z,73.92
2023-01-30T13:54:21.808Z,72.88
2023-01-30T13:56:57.594Z,73.28
2023-01-30T14:00:02.729Z,73.10
2023-01-30T14:02:29.156Z,73.47
2023-01-30T14:04:57.125Z,72.64
2023-01-30T14:07:52.575Z,72.83
2023-01-30T14:10:21.013Z,73.56
2023-01-30T14:12:51.147Z,73.53
2023-01-30T14:15:17.716Z,73.61
2023-01-30T14:18:23.260Z,73.67
2023-01-30T14:20:51.300Z,75.31
2023-01-30T14:23:33.182Z,74.51
2023-01-30T14:25:59.974Z,75.15
2023-01-30T14:28:29.065Z,74.48
2023-01-30T14:30:57.888Z,74.83
2023-01-30T14:33:24.135Z,75.70
2023-01-30T14:36:02.756Z,75.35
2023-01-30T14:38:33.783Z,75.98
2023-01-30T14:40:59.995Z,75.90
2023-01-30T14:43:46.346Z,75.58
2023-01-30T14:46:32.626Z,75.63
2023-01-30T14:49:29.464Z,74.67
2023-01-30T14:51:56.180Z,74.48
2023-01-30T14:54:41.331Z,74.31
2023-01-30T14:57:19.062Z,74.72
2023-01-30T14:59:45.267Z,74.09
2023-01-30T15:02:14.691Z,73.48
2023-01-30T15:04:50.487Z,73.10
2023-01-30T15:07:24.415Z,73.27
2023-01-30T15:09:57.067Z,74.02
2023-01-30T15:12:52.546Z,72.89
2023-01-30T15:15:40.442Z,73.63
2023-01-30T15:18:39.985Z,73.89
2023-01-30T15:21:33.678Z,73.34
2023-01-30T15:24:27.704Z,74.15
2023-01-30T15:27:30.635Z,73.12
2023-01-30T15:30:04.237Z,74.21
2023-01-30T15:32:32.935Z,73.11
2023-01-30T15:35:22.726Z,74.21
2023-01-30T15:37:54.272Z,73.97
2023-01-30T15:40:23.086Z,74.34
2023-01-30T15:43:01.395Z,74.49
2023-01-30T15:45:40.531Z,74.16
2023-01-30T15:48:34.952Z,75.25
2023-01-30T15:51:02.882Z,75.02
2023-01-30T15:53:36.018Z,74.06
2023-01-30T15:56:07.365Z,75.34
2023-01-30T15:58:40.944Z,75.19
2023-01-30T16:01:08.316Z,75.78
2023-01-30T16:03:40.730Z,75.73
2023-01-30T16:06:07.418Z,75.27
2023-01-30T16:08:35.729Z,75.66
2023-01-30T16:11:02.604Z,75.44
2023-01-30T16:13:30.405Z,76.05
2023-01-30T16:16:05.611Z,75.38
2023-01-30T16:18:38.495Z,75.26
2023-01-30T16:21:09.462Z,75.39
2023-01-30T16:23:40.883Z,75.47
2023-01-30T16:26:16.054Z,75.71
2023-01-30T16:28:42.451Z,75.78
2023-01-30T16:31:10.423Z,75.70
2023-01-30T16:33:37.988Z,75.96
2023-01-30T16:36:06.557Z,75.92
2023-01-30T16:38:45.162Z,76.01
2023-01-30T16:41:30.198Z,76.05
2023-01-30T16:44:23.992Z,75.96
2023-01-30T16:47:11.976Z,75.84
2023-01-30T16:49:45.705Z,76.05
2023-01-30T16:52:20.896Z,75.93
2023-01-30T16:54:51.084Z,76.46
2023-01-30T16:57:34.102Z,76.24
2023-01-30T17:00:00.923Z,75.80
2023-01-30T17:02:34.525Z,76.62
2023-01-30T17:05:40.230Z,76.20
2023-01-30T17:08:45.060Z,75.70
2023-01-30T17:11:29.992Z,75.46
2023-01-30T17:14:10.797Z,75.27
2023-01-30T17:16:37.250Z,75.51
2023-01-30T17:19:03.516Z,76.89
2023-01-30T17:21:36.018Z,75.66
2023-01-30T17:24:04.692Z,75.01
2023-01-30T17:26:32.002Z,75.08
2023-01-30T17:28:58.945Z,75.11
2023-01-30T17:31:25.443Z,75.15
2023-01-30T17:33:51.880Z,75.31
2023-01-30T17:36:23.849Z,75.88
2023-01-30T17:38:50.541Z,75.52
2023-01-30T17:41:22.451Z,75.63
2023-01-30T17:43:49.920Z,75.46
2023-01-30T17:46:17.678Z,74.92
2023-01-30T17:48:44.691Z,75.07
2023-01-30T17:51:10.977Z,75.39
2023-01-30T17:53:37.344Z,75.24
2023-01-30T17:56:03.963Z,75.04
2023-01-30T17:58:30.286Z,75.07
2023-01-30T18:00:56.549Z,74.88
2023-01-30T18:03:22.939Z,75.21
2023-01-30T18:05:49.222Z,74.58
2023-01-30T18:08:15.577Z,75.42
2023-01-30T18:10:42.115Z,75.00
2023-01-30T18:13:08.416Z,75.46
2023-01-30T18:15:34.724Z,74.99
2023-01-30T18:18:01.148Z,74.64
2023-01-30T18:20:27.454Z,74.70
2023-01-30T18:22:53.835Z,74.00
2023-01-30T18:25:20.673Z,74.04
2023-01-30T18:27:47.346Z,73.84
2023-01-30T18:30:17.438Z,73.84
2023-01-30T18:32:53.030Z,73.54
2023-01-30T18:35:21.124Z,73.40
2023-01-30T18:37:47.487Z,73.45
2023-01-30T18:40:13.901Z,74.10
2023-01-30T18:42:40.186Z,74.33
2023-01-30T18:45:06.943Z,74.40
2023-01-30T18:47:33.220Z,74.16
2023-01-30T18:49:59.492Z,74.36
2023-01-30T18:52:25.804Z,74.51
2023-01-30T18:54:52.199Z,74.49
2023-01-30T18:57:18.498Z,75.04
2023-01-30T18:59:44.855Z,75.26
2023-01-30T19:02:11.979Z,74.35
2023-01-30T19:04:38.415Z,74.45
2023-01-30T19:07:05.116Z,74.84
2023-01-30T19:09:31.425Z,74.59
2023-01-30T19:11:57.710Z,74.75
2023-01-30T19:14:24.131Z,74.10
2023-01-30T19:16:50.421Z,74.28
2023-01-30T19:19:17.535Z,74.75
2023-01-30T19:21:43.961Z,74.14
2023-01-30T19:24:13.566Z,73.85
2023-01-30T19:26:40.372Z,74.56
2023-01-30T19:29:06.756Z,75.03
2023-01-30T19:31:33.434Z,75.35
2023-01-30T19:34:01.681Z,75.08
2023-01-30T19:36:30.260Z,75.21
2023-01-30T19:38:59.306Z,76.55
2023-01-30T19:41:30.587Z,77.08
2023-01-30T19:43:59.043Z,77.28
2023-01-30T19:46:26.119Z,77.11
2023-01-30T19:48:52.571Z,77.02
2023-01-30T19:51:30.723Z,77.24
2023-01-30T19:54:00.210Z,78.01
2023-01-30T19:56:27.748Z,77.50
2023-01-30T19:58:55.946Z,77.63
2023-01-30T20:01:25.277Z,77.04
2023-01-30T20:03:51.568Z,77.24
2023-01-30T20:06:20.734Z,76.68
2023-01-30T20:08:48.955Z,77.60
2023-01-30T20:11:17.340Z,77.96
2023-01-30T20:13:45.338Z,77.89
2023-01-30T20:16:15.194Z,77.46
2023-01-30T20:18:42.124Z,77.27
2023-01-30T20:21:14.250Z,77.74
2023-01-30T20:23:40.621Z,77.65
2023-01-30T20:26:09.277Z,77.02
2023-01-30T20:28:36.578Z,77.43
2023-01-30T20:31:12.156Z,77.44
2023-01-30T20:33:39.142Z,77.34
2023-01-30T20:36:08.362Z,77.47
2023-01-30T20:38:37.188Z,77.35
2023-01-30T20:41:05.362Z,77.25
2023-01-30T20:43:35.710Z,77.67
2023-01-30T20:46:11.154Z,77.32
2023-01-30T20:48:38.546Z,77.16
2023-01-30T20:51:07.497Z,77.57
2023-01-30T20:53:34.766Z,77.00
2023-01-30T20:56:01.475Z,77.11
2023-01-30T20:58:28.593Z,77.11
2023-01-30T21:00:55.212Z,77.35
2023-01-30T21:03:24.609Z,77.65
2023-01-30T21:05:58.056Z,77.10
2023-01-30T21:08:25.046Z,76.73
2023-01-30T21:10:51.339Z,76.62
2023-01-30T21:13:17.628Z,76.59
2023-01-30T21:15:43.975Z,76.82
2023-01-30T21:18:10.268Z,76.21
2023-01-30T21:20:36.557Z,76.03
2023-01-30T21:23:03.074Z,76.77
2023-01-30T21:25:29.557Z,76.53
2023-01-30T21:27:55.947Z,76.52
2023-01-30T21:30:22.317Z,76.33
2023-01-30T21:32:48.649Z,76.63
2023-01-30T21:35:14.917Z,76.17
2023-01-30T21:37:41.209Z,75.89
2023-01-30T21:40:09.718Z,75.75
2023-01-30T21:42:35.995Z,75.67
2023-01-30T21:45:03.013Z,75.60
2023-01-30T21:47:29.270Z,75.67
2023-01-30T21:49:55.664Z,75.53
2023-01-30T21:52:22.008Z,75.97
2023-01-30T21:54:48.280Z,75.33
2023-01-30T21:57:14.636Z,75.20
2023-01-30T21:59:40.915Z,74.92
2023-01-30T22:02:07.225Z,74.92
2023-01-30T22:04:34.615Z,74.99
2023-01-30T22:07:00.880Z,74.88
2023-01-30T22:09:27.255Z,74.61
2023-01-30T22:11:53.786Z,75.06
2023-01-30T22:14:20.095Z,75.13
2023-01-30T22:16:46.423Z,75.21
2023-01-30T22:19:12.726Z,74.87
2023-01-30T22:21:40.195Z,75.01
2023-01-30T22:24:08.568Z,75.12
2023-01-30T22:26:35.233Z,75.87
2023-01-30T22:29:04.682Z,75.64
2023-01-30T22:31:36.330Z,75.85
2023-01-30T22:34:04.181Z,75.68
2023-01-30T22:36:31.516Z,76.05
2023-01-30T22:38:57.794Z,75.26
2023-01-30T22:41:26.222Z,75.80
2023-01-30T22:43:57.201Z,76.37
2023-01-30T22:46:28.813Z,76.48
2023-01-30T22:48:55.129Z,76.11
2023-01-30T22:51:23.764Z,76.90
2023-01-30T22:53:55.404Z,76.64
2023-01-30T22:56:24.703Z,76.85
2023-01-30T22:58:51.532Z,76.25
2023-01-30T23:01:21.080Z,76.75
2023-01-30T23:03:52.054Z,75.87
2023-01-30T23:06:18.411Z,76.75
2023-01-30T23:08:47.351Z,76.06
2023-01-30T23:11:24.778Z,76.66
2023-01-30T23:13:53.801Z,76.49
2023-01-30T23:16:24.383Z,76.87
2023-01-30T23:18:51.158Z,76.30
2023-01-30T23:21:18.286Z,76.58
2023-01-30T23:23:45.457Z,76.38
2023-01-30T23:26:12.841Z,76.30
2023-01-30T23:28:39.838Z,76.32
2023-01-30T23:31:08.704Z,76.88
2023-01-30T23:33:35.526Z,75.91
2023-01-30T23:36:08.066Z,76.37
2023-01-30T23:38:34.583Z,75.95
2023-01-30T23:41:12.937Z,76.52
2023-01-30T23:43:41.113Z,76.31
2023-01-30T23:46:14.842Z,76.22
2023-01-30T23:48:42.048Z,76.16
2023-01-30T23:51:08.408Z,76.68
2023-01-30T23:53:35.157Z,75.82
2023-01-30T23:56:02.576Z,76.42
2023-01-30T23:58:28.849Z,75.88
